sensor_id;sensor_type;location;lat;lon;timestamp;pressure;altitude;pressure_sealevel;temperature;humidity
32759;BME280;19125;52.360;9.974;2023-03-03T00:01:16;-15010.44;;;-145.17;74.34
32759;BME280;19125;52.360;9.974;2023-03-03T00:03:42;-15010.44;;;-145.17;74.79
32759;BME280;19125;52.360;9.974;2023-03-03T00:06:10;-15010.44;;;-145.17;74.56
32759;BME280;19125;52.360;9.974;2023-03-03T00:08:36;-15010.44;;;-145.17;74.61
32759;BME280;19125;52.360;9.974;2023-03-03T00:11:01;-15010.44;;;-145.17;74.46
32759;BME280;19125;52.360;9.974;2023-03-03T00:13:30;-15010.44;;;-145.17;74.40
32759;BME280;19125;52.360;9.974;2023-03-03T00:16:21;-15010.44;;;-145.17;74.47
32759;BME280;19125;52.360;9.974;2023-03-03T00:18:48;-15010.44;;;-145.17;74.63
32759;BME280;19125;52.360;9.974;2023-03-03T00:21:39;-15010.44;;;-145.17;74.63
32759;BME280;19125;52.360;9.974;2023-03-03T00:24:16;-15010.44;;;-145.17;74.61
32759;BME280;19125;52.360;9.974;2023-03-03T00:26:56;-15010.44;;;-145.17;74.49
32759;BME280;19125;52.360;9.974;2023-03-03T00:29:40;-15010.44;;;-145.17;74.57
32759;BME280;19125;52.360;9.974;2023-03-03T00:32:22;-15010.44;;;-145.17;74.24
32759;BME280;19125;52.360;9.974;2023-03-03T00:34:50;-15010.44;;;-145.17;74.70
32759;BME280;19125;52.360;9.974;2023-03-03T00:37:37;-15010.44;;;-145.17;74.73
32759;BME280;19125;52.360;9.974;2023-03-03T00:40:25;-15010.44;;;-145.17;74.47
32759;BME280;19125;52.360;9.974;2023-03-03T00:42:54;-15010.44;;;-145.17;74.90
32759;BME280;19125;52.360;9.974;2023-03-03T00:45:59;-15010.44;;;-145.17;74.71
32759;BME280;19125;52.360;9.974;2023-03-03T00:48:43;-15010.44;;;-145.17;74.82
32759;BME280;19125;52.360;9.974;2023-03-03T00:51:30;-15010.44;;;-145.17;74.84
32759;BME280;19125;52.360;9.974;2023-03-03T00:53:57;-15010.44;;;-145.17;74.77
32759;BME280;19125;52.360;9.974;2023-03-03T00:56:24;-15010.44;;;-145.17;74.65
32759;BME280;19125;52.360;9.974;2023-03-03T00:58:50;-15010.44;;;-145.17;74.98
32759;BME280;19125;52.360;9.974;2023-03-03T01:01:17;-15010.44;;;-145.17;74.88
32759;BME280;19125;52.360;9.974;2023-03-03T01:03:42;-15010.44;;;-145.17;75.05
32759;BME280;19125;52.360;9.974;2023-03-03T01:06:09;-15010.44;;;-145.17;75.12
32759;BME280;19125;52.360;9.974;2023-03-03T01:08:34;-15010.44;;;-145.17;75.13
32759;BME280;19125;52.360;9.974;2023-03-03T01:11:07;-15010.44;;;-145.17;75.00
32759;BME280;19125;52.360;9.974;2023-03-03T01:13:35;-15010.44;;;-145.17;75.21
32759;BME280;19125;52.360;9.974;2023-03-03T01:16:01;-15010.44;;;-145.17;75.09
32759;BME280;19125;52.360;9.974;2023-03-03T01:18:28;-15010.44;;;-145.17;75.14
32759;BME280;19125;52.360;9.974;2023-03-03T01:20:53;-15010.44;;;-145.17;75.21
32759;BME280;19125;52.360;9.974;2023-03-03T01:23:19;-15010.44;;;-145.17;75.08
32759;BME280;19125;52.360;9.974;2023-03-03T01:25:44;-15010.44;;;-145.17;75.22
32759;BME280;19125;52.360;9.974;2023-03-03T01:28:09;-15010.44;;;-145.17;74.82
32759;BME280;19125;52.360;9.974;2023-03-03T01:30:35;-15010.44;;;-145.17;75.12
32759;BME280;19125;52.360;9.974;2023-03-03T01:33:01;-15010.44;;;-145.17;75.35
32759;BME280;19125;52.360;9.974;2023-03-03T01:35:26;-15010.44;;;-145.17;74.99
32759;BME280;19125;52.360;9.974;2023-03-03T01:37:54;-15010.44;;;-145.17;75.12
32759;BME280;19125;52.360;9.974;2023-03-03T01:40:22;-15010.44;;;-145.17;75.12
32759;BME280;19125;52.360;9.974;2023-03-03T01:42:47;-15010.44;;;-145.17;74.93
32759;BME280;19125;52.360;9.974;2023-03-03T01:45:24;-15010.44;;;-145.17;75.23
32759;BME280;19125;52.360;9.974;2023-03-03T01:48:03;-15010.44;;;-145.17;75.35
32759;BME280;19125;52.360;9.974;2023-03-03T01:53:02;-15010.44;;;-145.17;75.31
32759;BME280;19125;52.360;9.974;2023-03-03T01:55:33;-15010.44;;;-145.17;75.39
32759;BME280;19125;52.360;9.974;2023-03-03T01:58:06;-15010.44;;;-145.17;75.25
32759;BME280;19125;52.360;9.974;2023-03-03T02:00:35;-15010.44;;;-145.17;75.55
32759;BME280;19125;52.360;9.974;2023-03-03T02:03:02;-15010.44;;;-145.17;75.45
32759;BME280;19125;52.360;9.974;2023-03-03T02:05:28;-15010.44;;;-145.17;75.27
32759;BME280;19125;52.360;9.974;2023-03-03T02:07:54;-15010.44;;;-145.17;75.42
32759;BME280;19125;52.360;9.974;2023-03-03T02:10:20;-15010.44;;;-145.17;75.54
32759;BME280;19125;52.360;9.974;2023-03-03T02:12:51;-15010.44;;;-145.17;75.64
32759;BME280;19125;52.360;9.974;2023-03-03T02:15:33;-15010.44;;;-145.17;75.54
32759;BME280;19125;52.360;9.974;2023-03-03T02:18:11;-15010.44;;;-145.17;75.50
32759;BME280;19125;52.360;9.974;2023-03-03T02:20:53;-15010.44;;;-145.17;75.74
32759;BME280;19125;52.360;9.974;2023-03-03T02:23:28;-15010.44;;;-145.17;75.52
32759;BME280;19125;52.360;9.974;2023-03-03T02:28:22;-15010.44;;;-145.17;75.62
32759;BME280;19125;52.360;9.974;2023-03-03T02:30:48;-15010.44;;;-145.17;75.29
32759;BME280;19125;52.360;9.974;2023-03-03T02:33:13;-15010.44;;;-145.17;75.65
32759;BME280;19125;52.360;9.974;2023-03-03T02:35:40;-15010.44;;;-145.17;75.74
32759;BME280;19125;52.360;9.974;2023-03-03T02:38:11;-15010.44;;;-145.17;75.77
32759;BME280;19125;52.360;9.974;2023-03-03T02:40:43;-15010.44;;;-145.17;75.62
32759;BME280;19125;52.360;9.974;2023-03-03T02:43:13;-15010.44;;;-145.17;75.52
32759;BME280;19125;52.360;9.974;2023-03-03T02:45:44;-15010.44;;;-145.17;75.59
32759;BME280;19125;52.360;9.974;2023-03-03T02:48:10;-15010.44;;;-145.17;75.76
32759;BME280;19125;52.360;9.974;2023-03-03T02:50:35;-15010.44;;;-145.17;75.58
32759;BME280;19125;52.360;9.974;2023-03-03T02:53:01;-15010.44;;;-145.17;75.66
32759;BME280;19125;52.360;9.974;2023-03-03T02:55:26;-15010.44;;;-145.17;75.61
32759;BME280;19125;52.360;9.974;2023-03-03T02:57:52;-15010.44;;;-145.17;75.78
32759;BME280;19125;52.360;9.974;2023-03-03T03:00:17;-15010.44;;;-145.17;75.77
32759;BME280;19125;52.360;9.974;2023-03-03T03:02:42;-15010.44;;;-145.17;75.68
32759;BME280;19125;52.360;9.974;2023-03-03T03:05:08;-15010.44;;;-145.17;75.77
32759;BME280;19125;52.360;9.974;2023-03-03T03:07:33;-15010.44;;;-145.17;75.72
32759;BME280;19125;52.360;9.974;2023-03-03T03:09:59;-15010.44;;;-145.17;75.40
32759;BME280;19125;52.360;9.974;2023-03-03T03:12:24;-15010.44;;;-145.17;75.41
32759;BME280;19125;52.360;9.974;2023-03-03T03:14:49;-15010.44;;;-145.17;75.46
32759;BME280;19125;52.360;9.974;2023-03-03T03:17:14;-15010.44;;;-145.17;75.52
32759;BME280;19125;52.360;9.974;2023-03-03T03:19:40;-15010.44;;;-145.17;75.36
32759;BME280;19125;52.360;9.974;2023-03-03T03:22:05;-15010.44;;;-145.17;75.47
32759;BME280;19125;52.360;9.974;2023-03-03T03:24:31;-15010.44;;;-145.17;75.46
32759;BME280;19125;52.360;9.974;2023-03-03T03:26:56;-15010.44;;;-145.17;75.53
32759;BME280;19125;52.360;9.974;2023-03-03T03:29:21;-15010.44;;;-145.17;75.49
32759;BME280;19125;52.360;9.974;2023-03-03T03:31:47;-15010.44;;;-145.17;75.29
32759;BME280;19125;52.360;9.974;2023-03-03T03:34:12;-15010.44;;;-145.17;75.64
32759;BME280;19125;52.360;9.974;2023-03-03T03:36:37;-15010.44;;;-145.17;75.17
32759;BME280;19125;52.360;9.974;2023-03-03T03:39:04;-15010.44;;;-145.17;75.23
32759;BME280;19125;52.360;9.974;2023-03-03T03:41:30;-15010.44;;;-145.17;75.60
32759;BME280;19125;52.360;9.974;2023-03-03T03:43:56;-15010.44;;;-145.17;75.35
32759;BME280;19125;52.360;9.974;2023-03-03T03:46:21;-15010.44;;;-145.17;75.58
32759;BME280;19125;52.360;9.974;2023-03-03T03:48:47;-15010.44;;;-145.17;75.10
32759;BME280;19125;52.360;9.974;2023-03-03T03:51:12;-15010.44;;;-145.17;75.08
32759;BME280;19125;52.360;9.974;2023-03-03T03:53:38;-15010.44;;;-145.17;75.37
32759;BME280;19125;52.360;9.974;2023-03-03T03:56:03;-15010.44;;;-145.17;75.12
32759;BME280;19125;52.360;9.974;2023-03-03T03:58:29;-15010.44;;;-145.17;75.31
32759;BME280;19125;52.360;9.974;2023-03-03T04:00:54;-15010.44;;;-145.17;75.27
32759;BME280;19125;52.360;9.974;2023-03-03T04:03:20;-15010.44;;;-145.17;75.19
32759;BME280;19125;52.360;9.974;2023-03-03T04:05:45;-15010.44;;;-145.17;75.46
32759;BME280;19125;52.360;9.974;2023-03-03T04:08:11;-15010.44;;;-145.17;75.15
32759;BME280;19125;52.360;9.974;2023-03-03T04:10:37;-15010.44;;;-145.17;75.17
32759;BME280;19125;52.360;9.974;2023-03-03T04:13:02;-15010.44;;;-145.17;75.14
32759;BME280;19125;52.360;9.974;2023-03-03T04:15:28;-15010.44;;;-145.17;75.05
32759;BME280;19125;52.360;9.974;2023-03-03T04:17:53;-15010.44;;;-145.17;74.98
32759;BME280;19125;52.360;9.974;2023-03-03T04:20:18;-15010.44;;;-145.17;75.36
32759;BME280;19125;52.360;9.974;2023-03-03T04:22:44;-15010.44;;;-145.17;75.11
32759;BME280;19125;52.360;9.974;2023-03-03T04:25:13;-15010.44;;;-145.17;75.29
32759;BME280;19125;52.360;9.974;2023-03-03T04:27:39;-15010.44;;;-145.17;74.86
32759;BME280;19125;52.360;9.974;2023-03-03T04:30:05;-15010.44;;;-145.17;75.27
32759;BME280;19125;52.360;9.974;2023-03-03T04:32:31;-15010.44;;;-145.17;75.17
32759;BME280;19125;52.360;9.974;2023-03-03T04:34:58;-15010.44;;;-145.17;75.31
32759;BME280;19125;52.360;9.974;2023-03-03T04:37:23;-15010.44;;;-145.17;75.11
32759;BME280;19125;52.360;9.974;2023-03-03T04:39:48;-15010.44;;;-145.17;75.02
32759;BME280;19125;52.360;9.974;2023-03-03T04:42:14;-15010.44;;;-145.17;75.01
32759;BME280;19125;52.360;9.974;2023-03-03T04:44:39;-15010.44;;;-145.17;74.75
32759;BME280;19125;52.360;9.974;2023-03-03T04:47:05;-15010.44;;;-145.17;75.12
32759;BME280;19125;52.360;9.974;2023-03-03T04:49:30;-15010.44;;;-145.17;75.06
32759;BME280;19125;52.360;9.974;2023-03-03T04:51:56;-15010.44;;;-145.17;74.96
32759;BME280;19125;52.360;9.974;2023-03-03T04:54:21;-15010.44;;;-145.17;74.90
32759;BME280;19125;52.360;9.974;2023-03-03T04:56:47;-15010.44;;;-145.17;74.88
32759;BME280;19125;52.360;9.974;2023-03-03T04:59:12;-15010.44;;;-145.17;74.93
32759;BME280;19125;52.360;9.974;2023-03-03T05:01:38;-15010.44;;;-145.17;75.29
32759;BME280;19125;52.360;9.974;2023-03-03T05:04:03;-15010.44;;;-145.17;75.08
32759;BME280;19125;52.360;9.974;2023-03-03T05:06:28;-15010.44;;;-145.17;75.06
32759;BME280;19125;52.360;9.974;2023-03-03T05:08:54;-15010.44;;;-145.17;74.84
32759;BME280;19125;52.360;9.974;2023-03-03T05:11:19;-15010.44;;;-145.17;74.66
32759;BME280;19125;52.360;9.974;2023-03-03T05:13:45;-15010.44;;;-145.17;74.77
32759;BME280;19125;52.360;9.974;2023-03-03T05:16:10;-15010.44;;;-145.17;74.89
32759;BME280;19125;52.360;9.974;2023-03-03T05:18:36;-15010.44;;;-145.17;74.84
32759;BME280;19125;52.360;9.974;2023-03-03T05:21:02;-15010.44;;;-145.17;75.14
32759;BME280;19125;52.360;9.974;2023-03-03T05:23:27;-15010.44;;;-145.17;74.74
32759;BME280;19125;52.360;9.974;2023-03-03T05:25:53;-15010.44;;;-145.17;74.86
32759;BME280;19125;52.360;9.974;2023-03-03T05:28:18;-15010.44;;;-145.17;74.65
32759;BME280;19125;52.360;9.974;2023-03-03T05:30:45;-15010.44;;;-145.17;74.70
32759;BME280;19125;52.360;9.974;2023-03-03T05:33:14;-15010.44;;;-145.17;74.57
32759;BME280;19125;52.360;9.974;2023-03-03T05:35:40;-15010.44;;;-145.17;74.84
32759;BME280;19125;52.360;9.974;2023-03-03T05:38:05;-15010.44;;;-145.17;74.57
32759;BME280;19125;52.360;9.974;2023-03-03T05:40:31;-15010.44;;;-145.17;74.50
32759;BME280;19125;52.360;9.974;2023-03-03T05:42:57;-15010.44;;;-145.17;74.90
32759;BME280;19125;52.360;9.974;2023-03-03T05:45:23;-15010.44;;;-145.17;74.74
32759;BME280;19125;52.360;9.974;2023-03-03T05:47:50;-15010.44;;;-145.17;74.84
32759;BME280;19125;52.360;9.974;2023-03-03T05:50:16;-15010.44;;;-145.17;74.46
32759;BME280;19125;52.360;9.974;2023-03-03T05:52:42;-15010.44;;;-145.17;74.24
32759;BME280;19125;52.360;9.974;2023-03-03T05:55:08;-15010.44;;;-145.17;74.37
32759;BME280;19125;52.360;9.974;2023-03-03T05:57:33;-15010.44;;;-145.17;74.43
32759;BME280;19125;52.360;9.974;2023-03-03T06:00:00;-15010.44;;;-145.17;74.39
32759;BME280;19125;52.360;9.974;2023-03-03T06:02:26;-15010.44;;;-145.17;74.55
32759;BME280;19125;52.360;9.974;2023-03-03T06:04:51;-15010.44;;;-145.17;74.20
32759;BME280;19125;52.360;9.974;2023-03-03T06:07:16;-15010.44;;;-145.17;74.45
32759;BME280;19125;52.360;9.974;2023-03-03T06:09:42;-15010.44;;;-145.17;74.49
32759;BME280;19125;52.360;9.974;2023-03-03T06:12:07;-15010.44;;;-145.17;74.51
32759;BME280;19125;52.360;9.974;2023-03-03T06:14:32;-15010.44;;;-145.17;74.10
32759;BME280;19125;52.360;9.974;2023-03-03T06:16:58;-15010.44;;;-145.17;74.05
32759;BME280;19125;52.360;9.974;2023-03-03T06:19:23;-15010.44;;;-145.17;74.11
32759;BME280;19125;52.360;9.974;2023-03-03T06:21:48;-15010.44;;;-145.17;74.08
32759;BME280;19125;52.360;9.974;2023-03-03T06:24:14;-15010.44;;;-145.17;73.92
32759;BME280;19125;52.360;9.974;2023-03-03T06:26:39;-15010.44;;;-145.17;74.38
32759;BME280;19125;52.360;9.974;2023-03-03T06:29:05;-15010.44;;;-145.17;74.38
32759;BME280;19125;52.360;9.974;2023-03-03T06:31:31;-15010.44;;;-145.17;73.81
32759;BME280;19125;52.360;9.974;2023-03-03T06:33:56;-15010.44;;;-145.17;74.09
32759;BME280;19125;52.360;9.974;2023-03-03T06:36:21;-15010.44;;;-145.17;73.72
32759;BME280;19125;52.360;9.974;2023-03-03T06:38:47;-15010.44;;;-145.17;73.49
32759;BME280;19125;52.360;9.974;2023-03-03T06:41:13;-15010.44;;;-145.17;73.42
32759;BME280;19125;52.360;9.974;2023-03-03T06:43:38;-15010.44;;;-145.17;73.35
32759;BME280;19125;52.360;9.974;2023-03-03T06:46:04;-15010.44;;;-145.17;73.36
32759;BME280;19125;52.360;9.974;2023-03-03T06:48:31;-15010.44;;;-145.17;73.27
32759;BME280;19125;52.360;9.974;2023-03-03T06:50:58;-15010.44;;;-145.17;73.64
32759;BME280;19125;52.360;9.974;2023-03-03T06:53:24;-15010.44;;;-145.17;73.31
32759;BME280;19125;52.360;9.974;2023-03-03T06:55:49;-15010.44;;;-145.17;73.04
32759;BME280;19125;52.360;9.974;2023-03-03T06:58:17;-15010.44;;;-145.17;73.09
32759;BME280;19125;52.360;9.974;2023-03-03T07:00:46;-15010.44;;;-145.17;72.90
32759;BME280;19125;52.360;9.974;2023-03-03T07:05:41;-15010.44;;;-145.17;73.01
32759;BME280;19125;52.360;9.974;2023-03-03T07:08:15;-15010.44;;;-145.17;73.27
32759;BME280;19125;52.360;9.974;2023-03-03T07:10:41;-15010.44;;;-145.17;73.00
32759;BME280;19125;52.360;9.974;2023-03-03T07:15:41;-15010.44;;;-145.17;73.29
32759;BME280;19125;52.360;9.974;2023-03-03T07:18:22;-15010.44;;;-145.17;72.88
32759;BME280;19125;52.360;9.974;2023-03-03T07:20:49;-15010.44;;;-145.17;73.27
32759;BME280;19125;52.360;9.974;2023-03-03T07:23:20;-15010.44;;;-145.17;72.82
32759;BME280;19125;52.360;9.974;2023-03-03T07:25:47;-15010.44;;;-145.17;73.01
32759;BME280;19125;52.360;9.974;2023-03-03T07:28:26;-15010.44;;;-145.17;72.90
32759;BME280;19125;52.360;9.974;2023-03-03T07:30:52;-15010.44;;;-145.17;72.88
32759;BME280;19125;52.360;9.974;2023-03-03T07:33:34;-15010.44;;;-145.17;73.06
32759;BME280;19125;52.360;9.974;2023-03-03T07:36:02;-15010.44;;;-145.17;72.85
32759;BME280;19125;52.360;9.974;2023-03-03T07:38:38;-15010.44;;;-145.17;72.59
32759;BME280;19125;52.360;9.974;2023-03-03T07:41:11;-15010.44;;;-145.17;72.54
32759;BME280;19125;52.360;9.974;2023-03-03T07:43:46;-15009.00;;;-145.17;72.26
32759;BME280;19125;52.360;9.974;2023-03-03T07:46:28;-15009.00;;;-145.17;72.18
32759;BME280;19125;52.360;9.974;2023-03-03T07:48:55;-14761.44;;;-145.17;72.17
32759;BME280;19125;52.360;9.974;2023-03-03T07:51:41;-14761.44;;;-145.17;72.15
32759;BME280;19125;52.360;9.974;2023-03-03T07:56:45;-14266.31;;;-145.17;72.40
32759;BME280;19125;52.360;9.974;2023-03-03T07:59:21;-14018.72;;;-145.17;71.87
32759;BME280;19125;52.360;9.974;2023-03-03T08:01:54;-13771.13;;;-145.17;71.92
32759;BME280;19125;52.360;9.974;2023-03-03T08:04:48;-13275.88;;;-145.17;71.86
32759;BME280;19125;52.360;9.974;2023-03-03T08:07:18;-12532.84;;;-145.17;71.30
32759;BME280;19125;52.360;9.974;2023-03-03T08:12:28;-11294.19;;;-145.17;70.96
32759;BME280;19125;52.360;9.974;2023-03-03T08:14:57;-10798.59;;;-145.17;70.72
32759;BME280;19125;52.360;9.974;2023-03-03T08:17:35;-9807.25;;;-145.17;70.94
32759;BME280;19125;52.360;9.974;2023-03-03T08:20:37;-8815.66;;;-145.17;70.21
32759;BME280;19125;52.360;9.974;2023-03-03T08:23:03;-7823.78;;;-145.17;69.95
32759;BME280;19125;52.360;9.974;2023-03-03T08:25:28;-6583.59;;;-145.17;70.24
32759;BME280;19125;52.360;9.974;2023-03-03T08:27:53;-5094.84;;;-145.17;69.61
32759;BME280;19125;52.360;9.974;2023-03-03T08:30:19;-4102.00;;;-145.17;69.57
32759;BME280;19125;52.360;9.974;2023-03-03T08:32:44;-3357.22;;;-145.17;69.21
32759;BME280;19125;52.360;9.974;2023-03-03T08:35:10;-2612.28;;;-145.17;69.42
32759;BME280;19125;52.360;9.974;2023-03-03T08:37:35;-873.56;;;-145.17;69.12
32759;BME280;19125;52.360;9.974;2023-03-03T08:40:00;368.88;;;-145.17;68.78
32759;BME280;19125;52.360;9.974;2023-03-03T08:42:26;1114.53;;;-145.17;68.75
32759;BME280;19125;52.360;9.974;2023-03-03T08:44:54;1860.31;;;-145.17;68.92
32759;BME280;19125;52.360;9.974;2023-03-03T08:47:19;3103.63;;;-145.17;68.59
32759;BME280;19125;52.360;9.974;2023-03-03T08:49:45;4347.34;;;-145.17;68.34
32759;BME280;19125;52.360;9.974;2023-03-03T08:52:10;5342.63;;;-145.17;68.50
32759;BME280;19125;52.360;9.974;2023-03-03T08:54:35;6587.06;;;-145.17;68.07
32759;BME280;19125;52.360;9.974;2023-03-03T08:57:01;7582.91;;;-145.17;68.36
32759;BME280;19125;52.360;9.974;2023-03-03T08:59:26;8828.06;;;-145.17;67.64
32759;BME280;19125;52.360;9.974;2023-03-03T09:01:52;10322.78;;;-145.17;67.54
32759;BME280;19125;52.360;9.974;2023-03-03T09:04:17;11568.81;;;-145.17;67.22
32759;BME280;19125;52.360;9.974;2023-03-03T09:06:43;13313.94;;;-145.17;67.18
32759;BME280;19125;52.360;9.974;2023-03-03T09:09:08;14560.94;;;-145.17;67.44
32759;BME280;19125;52.360;9.974;2023-03-03T09:11:33;15808.34;;;-145.17;66.79
32759;BME280;19125;52.360;9.974;2023-03-03T09:14:10;16806.56;;;-145.17;67.16
32759;BME280;19125;52.360;9.974;2023-03-03T09:16:38;19053.47;;;-145.17;66.43
32759;BME280;19125;52.360;9.974;2023-03-03T09:19:34;22801.19;;;-145.17;66.01
32759;BME280;19125;52.360;9.974;2023-03-03T09:22:17;24301.31;;;-145.17;66.41
32759;BME280;19125;52.360;9.974;2023-03-03T09:24:43;26302.34;;;-145.17;65.84
32759;BME280;19125;52.360;9.974;2023-03-03T09:27:22;28054.09;;;-145.17;65.78
32759;BME280;19125;52.360;9.974;2023-03-03T09:29:52;31309.41;;;-145.17;65.55
32759;BME280;19125;52.360;9.974;2023-03-03T09:32:25;33815.38;;;-145.17;65.13
32759;BME280;19125;52.360;9.974;2023-03-03T09:34:54;37075.50;;;-145.17;64.90
32759;BME280;19125;52.360;9.974;2023-03-03T09:37:26;40087.25;;;-145.17;64.40
32759;BME280;19125;52.360;9.974;2023-03-03T09:39:56;42598.78;;;-145.17;64.37
32759;BME280;19125;52.360;9.974;2023-03-03T09:42:44;47123.63;;;-145.17;63.82
32759;BME280;19125;52.360;9.974;2023-03-03T09:45:15;50646.53;;;-145.17;63.84
32759;BME280;19125;52.360;9.974;2023-03-03T09:48:07;53164.81;;;-145.17;63.88
32759;BME280;19125;52.360;9.974;2023-03-03T09:50:47;56693.09;;;-145.17;63.70
32759;BME280;19125;52.360;9.974;2023-03-03T09:53:39;62748.91;;;-145.17;62.74
32759;BME280;19125;52.360;9.974;2023-03-03T09:58:39;65274.88;;;-145.17;63.12
32759;BME280;19125;52.360;9.974;2023-03-03T10:09:40;83239.53;;;-145.17;61.36
32759;BME280;19125;52.360;9.974;2023-03-03T10:12:19;84001.06;;;-145.17;61.40
32759;BME280;19125;52.360;9.974;2023-03-03T10:17:40;85865.81;;;-145.17;60.21
32759;BME280;19125;52.360;9.974;2023-03-03T10:25:37;86965.22;;;-145.17;60.21
32759;BME280;19125;52.360;9.974;2023-03-03T10:34:17;87469.38;;;-145.17;60.17
32759;BME280;19125;52.360;9.974;2023-03-03T10:37:11;87356.22;;;-145.17;59.68
32759;BME280;19125;52.360;9.974;2023-03-03T10:53:28;88251.53;;;-145.17;56.93
32759;BME280;19125;52.360;9.974;2023-03-03T10:56:18;88287.28;;;-145.17;57.16
32759;BME280;19125;52.360;9.974;2023-03-03T10:58:58;88271.41;;;-145.17;56.86
32759;BME280;19125;52.360;9.974;2023-03-03T11:01:46;88281.31;;;-145.17;57.02
32759;BME280;19125;52.360;9.974;2023-03-03T11:04:27;88235.66;;;-145.17;56.11
32759;BME280;19125;52.360;9.974;2023-03-03T11:07:45;88235.66;;;-145.17;56.33
32759;BME280;19125;52.360;9.974;2023-03-03T11:16:11;88215.81;;;-145.17;55.96
32759;BME280;19125;52.360;9.974;2023-03-03T11:21:29;88255.50;;;-145.17;55.65
32759;BME280;19125;52.360;9.974;2023-03-03T11:24:12;88253.53;;;-145.17;55.85
32759;BME280;19125;52.360;9.974;2023-03-03T11:32:30;88287.28;;;-145.17;55.81
32759;BME280;19125;52.360;9.974;2023-03-03T11:37:51;88195.94;;;-145.17;55.43
32759;BME280;19125;52.360;9.974;2023-03-03T11:40:26;88215.81;;;-145.17;55.45
32759;BME280;19125;52.360;9.974;2023-03-03T11:42:59;88184.03;;;-145.17;55.07
32759;BME280;19125;52.360;9.974;2023-03-03T11:45:41;88160.22;;;-145.17;54.52
32759;BME280;19125;52.360;9.974;2023-03-03T11:48:17;88100.66;;;-145.17;54.20
32759;BME280;19125;52.360;9.974;2023-03-03T11:50:57;88096.69;;;-145.17;53.64
32759;BME280;19125;52.360;9.974;2023-03-03T11:53:53;88106.59;;;-145.17;53.76
32759;BME280;19125;52.360;9.974;2023-03-03T11:58:53;88043.09;;;-145.17;53.46
32759;BME280;19125;52.360;9.974;2023-03-03T12:01:32;88033.16;;;-145.17;53.09
32759;BME280;19125;52.360;9.974;2023-03-03T12:04:05;88001.38;;;-145.17;53.05
32759;BME280;19125;52.360;9.974;2023-03-03T12:12:07;87971.63;;;-145.17;52.42
32759;BME280;19125;52.360;9.974;2023-03-03T12:17:50;88094.69;;;-145.17;52.98
32759;BME280;19125;52.360;9.974;2023-03-03T12:26:13;88108.59;;;-145.17;53.60
32759;BME280;19125;52.360;9.974;2023-03-03T12:28:54;88104.63;;;-145.17;53.54
32759;BME280;19125;52.360;9.974;2023-03-03T12:31:47;88122.50;;;-145.17;53.72
32759;BME280;19125;52.360;9.974;2023-03-03T12:34:24;88062.94;;;-145.17;53.19
32759;BME280;19125;52.360;9.974;2023-03-03T12:47:48;87997.41;;;-145.17;52.44
32759;BME280;19125;52.360;9.974;2023-03-03T12:50:24;88049.03;;;-145.17;52.68
32759;BME280;19125;52.360;9.974;2023-03-03T12:53:04;88041.09;;;-145.17;52.71
32759;BME280;19125;52.360;9.974;2023-03-03T13:06:52;87902.13;;;-145.17;51.04
32759;BME280;19125;52.360;9.974;2023-03-03T13:09:34;87884.25;;;-145.17;50.71
32759;BME280;19125;52.360;9.974;2023-03-03T13:12:20;87852.50;;;-145.17;51.31
32759;BME280;19125;52.360;9.974;2023-03-03T13:14:56;87796.91;;;-145.17;50.50
32759;BME280;19125;52.360;9.974;2023-03-03T13:17:30;87751.25;;;-145.17;49.63
32759;BME280;19125;52.360;9.974;2023-03-03T13:20:00;87755.22;;;-145.17;49.61
32759;BME280;19125;52.360;9.974;2023-03-03T13:22:34;87735.38;;;-145.17;49.38
32759;BME280;19125;52.360;9.974;2023-03-03T13:25:13;87719.50;;;-145.17;49.30
32759;BME280;19125;52.360;9.974;2023-03-03T13:27:43;87677.81;;;-145.17;49.42
32759;BME280;19125;52.360;9.974;2023-03-03T13:30:22;87661.94;;;-145.17;48.82
32759;BME280;19125;52.360;9.974;2023-03-03T13:38:02;87659.94;;;-145.17;48.45
32759;BME280;19125;52.360;9.974;2023-03-03T13:45:35;87642.06;;;-145.17;48.39
32759;BME280;19125;52.360;9.974;2023-03-03T14:05:02;87588.47;;;-145.17;47.98
32759;BME280;19125;52.360;9.974;2023-03-03T14:07:47;87600.38;;;-145.17;47.71
32759;BME280;19125;52.360;9.974;2023-03-03T14:10:24;87584.50;;;-145.17;47.98
32759;BME280;19125;52.360;9.974;2023-03-03T14:13:01;87598.41;;;-145.17;48.18
32759;BME280;19125;52.360;9.974;2023-03-03T14:15:43;87616.25;;;-145.17;47.87
32759;BME280;19125;52.360;9.974;2023-03-03T14:18:40;87628.19;;;-145.17;48.38
32759;BME280;19125;52.360;9.974;2023-03-03T14:21:14;87673.84;;;-145.17;48.53
32759;BME280;19125;52.360;9.974;2023-03-03T14:23:50;87683.75;;;-145.17;48.69
32759;BME280;19125;52.360;9.974;2023-03-03T14:26:19;87699.63;;;-145.17;49.01
32759;BME280;19125;52.360;9.974;2023-03-03T14:28:47;87717.50;;;-145.17;49.13
32759;BME280;19125;52.360;9.974;2023-03-03T14:31:38;87757.22;;;-145.17;49.25
32759;BME280;19125;52.360;9.974;2023-03-03T14:36:48;87783.00;;;-145.17;49.69
32759;BME280;19125;52.360;9.974;2023-03-03T14:39:29;87804.84;;;-145.17;49.75
32759;BME280;19125;52.360;9.974;2023-03-03T14:41:56;87800.88;;;-145.17;50.14
32759;BME280;19125;52.360;9.974;2023-03-03T14:44:26;87890.22;;;-145.17;50.81
32759;BME280;19125;52.360;9.974;2023-03-03T14:47:11;87870.38;;;-145.17;51.25
32759;BME280;19125;52.360;9.974;2023-03-03T14:49:41;87882.28;;;-145.17;51.07
32759;BME280;19125;52.360;9.974;2023-03-03T14:55:27;87912.06;;;-145.17;51.20
32759;BME280;19125;52.360;9.974;2023-03-03T14:57:53;87906.09;;;-145.17;51.17
32759;BME280;19125;52.360;9.974;2023-03-03T15:05:30;87965.66;;;-145.17;51.66
32759;BME280;19125;52.360;9.974;2023-03-03T15:10:35;87947.78;;;-145.17;51.97
32759;BME280;19125;52.360;9.974;2023-03-03T15:18:29;88096.69;;;-145.17;52.54
32759;BME280;19125;52.360;9.974;2023-03-03T15:29:22;88072.88;;;-145.17;52.49
32759;BME280;19125;52.360;9.974;2023-03-03T15:34:49;88045.06;;;-145.17;52.38
32759;BME280;19125;52.360;9.974;2023-03-03T15:40:28;88096.69;;;-145.17;53.19
32759;BME280;19125;52.360;9.974;2023-03-03T15:43:20;88128.44;;;-145.17;53.03